Terral, Oklahoma
Current Conditions -  °F | °C
As of 12:50 PM on Tuesday 27 Jan 2015 (Local Time) from K0F2 Reporting Station
Clear Clear  
Wind Chill: 24°   Ceiling: Unl
Heat Index: 24°   Visibility: 10mi
Dew Point:   Wind: 3mph
Humidity: 23%   Direction: 130°SE
Pressure: 30.15"   Gusts: NA
Location:  33.9°N, 97.94°W
Report Text: K0F2 271850Z AUTO 13003KT 10SM CLR 24/02 A3015 RMK AO2 T02440018
Loading
Personal Weather Stations






























Interactive Weather Map New forecast layout! Learn more

10-Day Weather Forecast

Advertisements
Track Severe Weather on mobile